createdAt,value
2024-01-16T00:00:31.303Z,20.84
2024-01-16T00:01:02.978Z,20.84
2024-01-16T00:01:34.569Z,20.84
2024-01-16T00:02:06.180Z,20.85
2024-01-16T00:02:37.859Z,20.85
2024-01-16T00:03:09.557Z,20.84
2024-01-16T00:03:41.187Z,20.84
2024-01-16T00:04:12.917Z,20.85
2024-01-16T00:04:44.644Z,20.86
2024-01-16T00:05:16.397Z,20.87
2024-01-16T00:05:48.150Z,20.86
2024-01-16T00:06:20.224Z,20.85
2024-01-16T00:06:51.986Z,20.86
2024-01-16T00:07:23.698Z,20.85
2024-01-16T00:07:55.316Z,20.86
2024-01-16T00:08:27.112Z,20.85
2024-01-16T00:08:58.732Z,20.86
2024-01-16T00:09:30.412Z,20.84
2024-01-16T00:10:02.047Z,20.85
2024-01-16T00:10:33.705Z,20.84
2024-01-16T00:11:05.399Z,20.84
2024-01-16T00:11:43.043Z,20.83
2024-01-16T00:12:14.676Z,20.83
2024-01-16T00:12:46.491Z,20.84
2024-01-16T00:13:18.217Z,20.84
2024-01-16T00:13:49.849Z,20.83
2024-01-16T00:14:21.511Z,20.82
2024-01-16T00:14:53.221Z,20.82
2024-01-16T00:15:24.862Z,20.84
2024-01-16T00:15:56.544Z,20.83
2024-01-16T00:16:28.119Z,20.83
2024-01-16T00:16:59.749Z,20.83
2024-01-16T00:17:31.444Z,20.83
2024-01-16T00:18:03.283Z,20.84
2024-01-16T00:18:35.844Z,20.83
2024-01-16T00:19:07.640Z,20.82
2024-01-16T00:19:39.279Z,20.82
2024-01-16T00:20:11.219Z,20.82
2024-01-16T00:20:42.978Z,20.83
2024-01-16T00:21:14.606Z,20.83
2024-01-16T00:21:46.260Z,20.82
2024-01-16T00:22:17.912Z,20.84
2024-01-16T00:22:49.628Z,20.83
2024-01-16T00:23:21.304Z,20.84
2024-01-16T00:23:52.889Z,20.84
2024-01-16T00:24:24.508Z,20.84
2024-01-16T00:24:56.178Z,20.85
2024-01-16T00:25:27.775Z,20.85
2024-01-16T00:25:59.431Z,20.86
2024-01-16T00:26:31.174Z,20.87
2024-01-16T00:27:02.879Z,20.86
2024-01-16T00:27:34.533Z,20.85
2024-01-16T00:28:06.366Z,20.83
2024-01-16T00:28:37.955Z,20.83
2024-01-16T00:29:09.566Z,20.83
2024-01-16T00:29:41.344Z,20.85
2024-01-16T00:30:13.199Z,20.85
2024-01-16T00:30:44.849Z,20.85
2024-01-16T00:31:16.542Z,20.85
2024-01-16T00:31:48.298Z,20.85
2024-01-16T00:32:19.992Z,20.83
2024-01-16T00:32:51.736Z,20.84
2024-01-16T00:33:23.476Z,20.84
2024-01-16T00:33:55.213Z,20.85
2024-01-16T00:34:27.025Z,20.85
2024-01-16T00:34:58.805Z,20.86
2024-01-16T00:35:30.597Z,20.86
2024-01-16T00:36:02.262Z,20.85
2024-01-16T00:36:33.869Z,20.86
2024-01-16T00:37:05.534Z,20.85
2024-01-16T00:37:37.672Z,20.85
2024-01-16T00:38:09.271Z,20.85
2024-01-16T00:38:40.987Z,20.86
2024-01-16T00:39:12.665Z,20.85
2024-01-16T00:39:44.281Z,20.85
2024-01-16T00:40:15.924Z,20.84
2024-01-16T00:40:47.560Z,20.84
2024-01-16T00:41:19.346Z,20.85
2024-01-16T00:41:51.061Z,20.84
2024-01-16T00:42:22.714Z,20.84
2024-01-16T00:42:54.291Z,20.85
2024-01-16T00:43:26.035Z,20.85
2024-01-16T00:43:57.680Z,20.85
2024-01-16T00:44:29.378Z,20.85
2024-01-16T00:45:01.150Z,20.85
2024-01-16T00:45:32.786Z,20.84
2024-01-16T00:46:04.493Z,20.85
2024-01-16T00:46:36.107Z,20.85
2024-01-16T00:47:07.748Z,20.86
2024-01-16T00:47:39.462Z,20.87
2024-01-16T00:48:11.293Z,20.86
2024-01-16T00:48:43.256Z,20.86
2024-01-16T00:49:15.956Z,20.87
2024-01-16T00:49:48.523Z,20.86
2024-01-16T00:50:20.217Z,20.85
2024-01-16T00:50:51.952Z,20.85
2024-01-16T00:51:23.680Z,20.86
2024-01-16T00:51:55.346Z,20.85
2024-01-16T00:52:27.672Z,20.85
2024-01-16T00:52:59.333Z,20.85
2024-01-16T00:53:31.011Z,20.84
2024-01-16T00:54:02.787Z,20.84
2024-01-16T00:54:34.443Z,20.85
2024-01-16T00:55:06.384Z,20.86
2024-01-16T00:55:38.015Z,20.86
2024-01-16T00:56:09.811Z,20.85
2024-01-16T00:56:42.997Z,20.84
2024-01-16T00:57:14.835Z,20.84
2024-01-16T00:57:46.511Z,20.85
2024-01-16T00:58:18.102Z,20.84
2024-01-16T00:58:49.803Z,20.84
2024-01-16T00:59:21.538Z,20.85
2024-01-16T00:59:53.392Z,20.87
2024-01-16T01:00:25.079Z,20.87
2024-01-16T01:00:56.716Z,20.87
2024-01-16T01:01:28.574Z,20.87
2024-01-16T01:02:00.217Z,20.86
2024-01-16T01:02:31.822Z,20.85
2024-01-16T01:03:03.946Z,20.85
2024-01-16T01:03:35.751Z,20.85
2024-01-16T01:04:07.725Z,20.87
2024-01-16T01:04:39.516Z,20.87
2024-01-16T01:05:11.397Z,20.85
2024-01-16T01:05:43.288Z,20.85
2024-01-16T01:06:15.163Z,20.86
2024-01-16T01:06:46.931Z,20.86
2024-01-16T01:07:18.611Z,20.87
2024-01-16T01:07:50.282Z,20.85
2024-01-16T01:08:21.904Z,20.84
2024-01-16T01:08:53.491Z,20.85
2024-01-16T01:09:25.131Z,20.85
2024-01-16T01:09:56.783Z,20.85
2024-01-16T01:10:28.426Z,20.85
2024-01-16T01:11:00.166Z,20.85
2024-01-16T01:11:31.845Z,20.85
2024-01-16T01:12:03.729Z,20.84
2024-01-16T01:12:35.367Z,20.83
2024-01-16T01:13:07.129Z,20.83
2024-01-16T01:13:38.875Z,20.84
2024-01-16T01:14:10.692Z,20.83
2024-01-16T01:14:42.575Z,20.83
2024-01-16T01:15:14.427Z,20.85
2024-01-16T01:15:46.231Z,20.85
2024-01-16T01:16:17.834Z,20.85
2024-01-16T01:16:49.408Z,20.87
2024-01-16T01:17:21.070Z,20.85
2024-01-16T01:17:52.823Z,20.85
2024-01-16T01:18:24.606Z,20.85
2024-01-16T01:18:56.375Z,20.85
2024-01-16T01:19:28.182Z,20.85
2024-01-16T01:19:59.935Z,20.86
2024-01-16T01:20:31.660Z,20.86
2024-01-16T01:21:03.342Z,20.86
2024-01-16T01:21:36.208Z,20.86
2024-01-16T01:22:07.818Z,20.87
2024-01-16T01:22:39.391Z,20.85
2024-01-16T01:23:11.159Z,20.85
2024-01-16T01:23:42.867Z,20.84
2024-01-16T01:24:14.574Z,20.85
2024-01-16T01:24:46.165Z,20.86
2024-01-16T01:25:17.803Z,20.87
2024-01-16T01:25:49.419Z,20.87
2024-01-16T01:26:21.087Z,20.86
2024-01-16T01:26:52.872Z,20.85
2024-01-16T01:27:24.660Z,20.85
2024-01-16T01:27:56.334Z,20.85
2024-01-16T01:28:27.936Z,20.86
2024-01-16T01:28:59.486Z,20.86
2024-01-16T01:29:31.094Z,20.87
2024-01-16T01:30:02.706Z,20.86
2024-01-16T01:30:34.304Z,20.87
2024-01-16T01:31:05.952Z,20.87
2024-01-16T01:31:37.610Z,20.87
2024-01-16T01:32:09.346Z,20.85
2024-01-16T01:32:41.294Z,20.85
2024-01-16T01:33:13.170Z,20.86
2024-01-16T01:33:45.083Z,20.85
2024-01-16T01:34:17.098Z,20.85
2024-01-16T01:34:48.910Z,20.86
2024-01-16T01:35:20.594Z,20.86
2024-01-16T01:35:52.238Z,20.87
2024-01-16T01:36:23.906Z,20.86
2024-01-16T01:36:55.536Z,20.85
2024-01-16T01:37:27.201Z,20.86
2024-01-16T01:37:58.810Z,20.87
2024-01-16T01:38:30.429Z,20.86
2024-01-16T01:39:02.085Z,20.86
2024-01-16T01:39:33.646Z,20.86
2024-01-16T01:40:05.483Z,20.86
2024-01-16T01:40:37.124Z,20.87
2024-01-16T01:41:08.947Z,20.87
2024-01-16T01:41:40.730Z,20.87
2024-01-16T01:42:12.379Z,20.88
2024-01-16T01:42:43.967Z,20.88
2024-01-16T01:43:21.915Z,20.88
2024-01-16T01:43:53.599Z,20.87
2024-01-16T01:44:25.189Z,20.87
2024-01-16T01:44:56.821Z,20.87
2024-01-16T01:45:28.470Z,20.85
2024-01-16T01:46:02.641Z,20.86
2024-01-16T01:46:34.498Z,20.85
2024-01-16T01:47:06.145Z,20.85
2024-01-16T01:47:40.898Z,20.86
2024-01-16T01:48:12.740Z,20.86
2024-01-16T01:48:44.643Z,20.87
2024-01-16T01:49:16.420Z,20.86
2024-01-16T01:49:48.143Z,20.85
2024-01-16T01:50:19.834Z,20.86
2024-01-16T01:50:51.547Z,20.86
2024-01-16T01:51:23.186Z,20.86
2024-01-16T01:51:55.145Z,20.86
2024-01-16T01:52:26.771Z,20.85
2024-01-16T01:52:58.347Z,20.85
2024-01-16T01:53:30.318Z,20.86
2024-01-16T01:54:02.019Z,20.87
2024-01-16T01:54:34.093Z,20.86
2024-01-16T01:55:05.975Z,20.84
2024-01-16T01:55:37.611Z,20.84
2024-01-16T01:56:09.714Z,20.85
2024-01-16T01:56:41.392Z,20.82
2024-01-16T01:57:13.196Z,20.82
2024-01-16T01:57:44.851Z,20.81
2024-01-16T01:58:16.522Z,20.81
2024-01-16T01:58:48.569Z,20.82
2024-01-16T01:59:20.233Z,20.85
2024-01-16T01:59:51.945Z,20.84
2024-01-16T02:00:23.863Z,20.85
2024-01-16T02:00:55.541Z,20.87
2024-01-16T02:01:27.192Z,20.86
2024-01-16T02:01:58.810Z,20.87
2024-01-16T02:02:30.457Z,20.87
2024-01-16T02:03:02.095Z,20.86
2024-01-16T02:03:34.084Z,20.84
2024-01-16T02:04:05.747Z,20.85
2024-01-16T02:04:37.430Z,20.87
2024-01-16T02:05:09.322Z,20.87
2024-01-16T02:05:41.078Z,20.86
2024-01-16T02:06:13.245Z,20.87
2024-01-16T02:06:44.930Z,20.88
2024-01-16T02:07:16.507Z,20.87
2024-01-16T02:07:48.109Z,20.84
2024-01-16T02:08:19.837Z,20.85
2024-01-16T02:08:52.071Z,20.84
2024-01-16T02:09:23.843Z,20.87
2024-01-16T02:09:55.468Z,20.88
2024-01-16T02:10:27.321Z,20.86
2024-01-16T02:10:58.945Z,20.87
2024-01-16T02:11:30.601Z,20.88
2024-01-16T02:12:02.293Z,20.87
2024-01-16T02:12:33.897Z,20.88
2024-01-16T02:13:05.472Z,20.88
2024-01-16T02:13:37.254Z,20.86
2024-01-16T02:14:09.019Z,20.86
2024-01-16T02:14:40.876Z,20.85
2024-01-16T02:15:12.587Z,20.85
2024-01-16T02:15:44.206Z,20.86
2024-01-16T02:16:19.166Z,20.85
2024-01-16T02:16:50.783Z,20.86
2024-01-16T02:17:22.681Z,20.85
2024-01-16T02:17:54.415Z,20.85
2024-01-16T02:18:26.148Z,20.84
2024-01-16T02:18:57.793Z,20.84
2024-01-16T02:19:29.492Z,20.83
2024-01-16T02:20:01.192Z,20.84
2024-01-16T02:20:32.794Z,20.83
2024-01-16T02:21:04.980Z,20.85
2024-01-16T02:21:38.261Z,20.85
2024-01-16T02:22:10.578Z,20.84
2024-01-16T02:22:43.277Z,20.83
2024-01-16T02:23:15.281Z,20.83
2024-01-16T02:23:47.106Z,20.82
2024-01-16T02:24:18.760Z,20.83
2024-01-16T02:24:50.446Z,20.84
2024-01-16T02:25:22.080Z,20.84
2024-01-16T02:25:53.810Z,20.83
2024-01-16T02:26:25.435Z,20.84
2024-01-16T02:26:57.304Z,20.82
2024-01-16T02:27:28.883Z,20.83
2024-01-16T02:28:00.862Z,20.81
2024-01-16T02:28:32.478Z,20.81
2024-01-16T02:29:04.266Z,20.81
2024-01-16T02:29:41.254Z,20.82
2024-01-16T02:30:13.030Z,20.82
2024-01-16T02:30:44.709Z,20.82
2024-01-16T02:31:16.404Z,20.80
2024-01-16T02:31:48.060Z,20.82
2024-01-16T02:32:19.800Z,20.82
2024-01-16T02:32:51.829Z,20.83
2024-01-16T02:33:23.683Z,20.84
2024-01-16T02:33:55.541Z,20.84
2024-01-16T02:34:27.561Z,20.83
2024-01-16T02:34:59.276Z,20.83
2024-01-16T02:35:30.979Z,20.82
2024-01-16T02:36:02.869Z,20.81
2024-01-16T02:36:34.473Z,20.80
2024-01-16T02:37:06.203Z,20.81
2024-01-16T02:37:38.009Z,20.81
2024-01-16T02:38:09.653Z,20.82
2024-01-16T02:38:43.019Z,20.80
2024-01-16T02:39:15.971Z,20.81
2024-01-16T02:39:47.568Z,20.80
2024-01-16T02:40:19.215Z,20.79
2024-01-16T02:40:50.879Z,20.79
2024-01-16T02:41:22.531Z,20.79
2024-01-16T02:41:54.244Z,20.81
2024-01-16T02:42:25.929Z,20.81
2024-01-16T02:42:57.508Z,20.83
2024-01-16T02:43:29.138Z,20.83
2024-01-16T02:44:00.798Z,20.83
2024-01-16T02:44:32.563Z,20.83
2024-01-16T02:45:05.092Z,20.82
2024-01-16T02:45:36.839Z,20.81
2024-01-16T02:46:08.400Z,20.80
2024-01-16T02:46:40.029Z,20.80
2024-01-16T02:47:11.779Z,20.80
2024-01-16T02:47:43.483Z,20.79
2024-01-16T02:48:15.241Z,20.81
2024-01-16T02:48:46.999Z,20.82
2024-01-16T02:49:18.753Z,20.84
2024-01-16T02:49:50.408Z,20.86
2024-01-16T02:50:22.024Z,20.84
2024-01-16T02:50:53.746Z,20.83
2024-01-16T02:51:25.436Z,20.83
2024-01-16T02:51:57.017Z,20.83
2024-01-16T02:52:28.621Z,20.83
2024-01-16T02:53:00.196Z,20.82
2024-01-16T02:53:32.123Z,20.83
2024-01-16T02:54:03.907Z,20.83
2024-01-16T02:54:35.527Z,20.83
2024-01-16T02:55:07.589Z,20.82
2024-01-16T02:55:39.205Z,20.81
2024-01-16T02:56:10.979Z,20.81
2024-01-16T02:56:42.727Z,20.84
2024-01-16T02:57:14.453Z,20.83
2024-01-16T02:57:46.100Z,20.81
2024-01-16T02:58:17.671Z,20.83
2024-01-16T02:58:49.298Z,20.83
2024-01-16T02:59:20.987Z,20.83
2024-01-16T02:59:52.608Z,20.84
2024-01-16T03:00:24.198Z,20.83
2024-01-16T03:00:55.987Z,20.83
2024-01-16T03:01:27.742Z,20.81
2024-01-16T03:02:01.661Z,20.82
2024-01-16T03:02:34.377Z,20.82
2024-01-16T03:03:06.790Z,20.82
2024-01-16T03:03:38.595Z,20.81
2024-01-16T03:04:10.347Z,20.82
2024-01-16T03:04:42.160Z,20.82
2024-01-16T03:05:13.994Z,20.83
2024-01-16T03:05:46.075Z,20.83
2024-01-16T03:06:24.134Z,20.84
2024-01-16T03:06:56.016Z,20.84
2024-01-16T03:07:27.781Z,20.84
2024-01-16T03:07:59.377Z,20.85
2024-01-16T03:08:31.078Z,20.83
2024-01-16T03:09:02.735Z,20.83
2024-01-16T03:09:34.344Z,20.83
2024-01-16T03:10:06.067Z,20.83
2024-01-16T03:10:37.774Z,20.83
2024-01-16T03:11:09.465Z,20.82
2024-01-16T03:11:41.136Z,20.82
2024-01-16T03:12:12.702Z,20.83
2024-01-16T03:12:44.295Z,20.82
2024-01-16T03:13:15.880Z,20.82
2024-01-16T03:13:47.476Z,20.82
2024-01-16T03:14:19.196Z,20.83
2024-01-16T03:14:50.886Z,20.82
2024-01-16T03:15:22.526Z,20.83
2024-01-16T03:15:54.149Z,20.83
2024-01-16T03:16:25.790Z,20.82
2024-01-16T03:16:57.467Z,20.83
2024-01-16T03:17:29.252Z,20.81
2024-01-16T03:18:01.255Z,20.82
2024-01-16T03:18:32.996Z,20.83
2024-01-16T03:19:04.761Z,20.83
2024-01-16T03:19:36.420Z,20.83
2024-01-16T03:20:08.282Z,20.82
2024-01-16T03:20:40.035Z,20.84
2024-01-16T03:21:11.914Z,20.83
2024-01-16T03:21:43.524Z,20.81
2024-01-16T03:22:15.107Z,20.81
2024-01-16T03:22:46.675Z,20.83
2024-01-16T03:23:18.403Z,20.84
2024-01-16T03:23:50.279Z,20.86
2024-01-16T03:24:22.188Z,20.87
2024-01-16T03:24:53.837Z,20.88
2024-01-16T03:25:25.449Z,20.87
2024-01-16T03:25:57.160Z,20.86
2024-01-16T03:26:28.820Z,20.84
2024-01-16T03:27:00.477Z,20.84
2024-01-16T03:27:32.129Z,20.84
2024-01-16T03:28:03.803Z,20.83
2024-01-16T03:28:35.449Z,20.81
2024-01-16T03:29:07.060Z,20.80
2024-01-16T03:29:38.770Z,20.81
2024-01-16T03:30:10.870Z,20.83
2024-01-16T03:30:42.707Z,20.83
2024-01-16T03:31:14.729Z,20.84
2024-01-16T03:31:46.414Z,20.85
2024-01-16T03:32:18.009Z,20.82
2024-01-16T03:32:49.730Z,20.82
2024-01-16T03:33:21.626Z,20.82
2024-01-16T03:33:53.408Z,20.83
2024-01-16T03:34:25.095Z,20.82
2024-01-16T03:34:56.742Z,20.83
2024-01-16T03:35:28.357Z,20.86
2024-01-16T03:35:59.925Z,20.85
2024-01-16T03:36:31.556Z,20.83
2024-01-16T03:37:03.206Z,20.83
2024-01-16T03:37:34.843Z,20.83
2024-01-16T03:38:06.544Z,20.84
2024-01-16T03:38:38.264Z,20.85
2024-01-16T03:39:09.922Z,20.85
2024-01-16T03:39:41.579Z,20.84
2024-01-16T03:40:13.213Z,20.87
2024-01-16T03:40:44.798Z,20.87
2024-01-16T03:41:16.469Z,20.87
2024-01-16T03:41:48.177Z,20.87
2024-01-16T03:42:19.861Z,20.88
2024-01-16T03:42:51.500Z,20.88
2024-01-16T03:43:23.158Z,20.88
2024-01-16T03:43:54.866Z,20.88
2024-01-16T03:44:26.506Z,20.87
2024-01-16T03:44:58.139Z,20.85
2024-01-16T03:45:29.730Z,20.84
2024-01-16T03:46:01.682Z,20.85
2024-01-16T03:46:33.393Z,20.83
2024-01-16T03:47:05.037Z,20.82
2024-01-16T03:47:36.835Z,20.82
2024-01-16T03:48:08.793Z,20.83
2024-01-16T03:48:40.653Z,20.83
2024-01-16T03:49:12.482Z,20.83
2024-01-16T03:49:44.190Z,20.83
2024-01-16T03:50:15.830Z,20.82
2024-01-16T03:50:47.532Z,20.82
2024-01-16T03:51:19.187Z,20.82
2024-01-16T03:51:50.790Z,20.84
2024-01-16T03:52:22.507Z,20.85
2024-01-16T03:52:54.150Z,20.85
2024-01-16T03:53:25.830Z,20.85
2024-01-16T03:53:57.542Z,20.86
2024-01-16T03:54:29.185Z,20.87
2024-01-16T03:55:00.941Z,20.87
2024-01-16T03:55:32.577Z,20.85
2024-01-16T03:56:04.524Z,20.84
2024-01-16T03:56:36.281Z,20.83
2024-01-16T03:57:07.988Z,20.83
2024-01-16T03:57:39.764Z,20.81
2024-01-16T03:58:13.521Z,20.82
2024-01-16T03:58:45.534Z,20.81
2024-01-16T03:59:17.278Z,20.82
2024-01-16T03:59:49.023Z,20.84
2024-01-16T04:00:20.710Z,20.85
2024-01-16T04:00:52.341Z,20.86
2024-01-16T04:01:36.163Z,20.87
2024-01-16T04:02:07.819Z,20.85
2024-01-16T04:02:39.567Z,20.85
2024-01-16T04:03:11.257Z,20.82
2024-01-16T04:03:42.861Z,20.82
2024-01-16T04:04:14.548Z,20.80
2024-01-16T04:04:46.215Z,20.82
2024-01-16T04:05:17.939Z,20.82
2024-01-16T04:05:49.669Z,20.81
2024-01-16T04:06:21.507Z,20.81
2024-01-16T04:06:53.155Z,20.81
2024-01-16T04:07:24.771Z,20.79
2024-01-16T04:07:57.699Z,20.82
2024-01-16T04:08:29.344Z,20.84
2024-01-16T04:09:00.935Z,20.84
2024-01-16T04:09:32.696Z,20.81
2024-01-16T04:10:04.555Z,20.81
2024-01-16T04:10:36.447Z,20.81
2024-01-16T04:11:12.457Z,20.82
2024-01-16T04:11:44.090Z,20.82
2024-01-16T04:12:15.705Z,20.81
2024-01-16T04:12:47.288Z,20.81
2024-01-16T04:13:18.928Z,20.80
2024-01-16T04:13:50.552Z,20.80
2024-01-16T04:14:22.258Z,20.81
2024-01-16T04:14:54.089Z,20.84
2024-01-16T04:15:25.783Z,20.84
2024-01-16T04:15:57.402Z,20.86
2024-01-16T04:16:29.328Z,20.85
2024-01-16T04:17:00.893Z,20.83
2024-01-16T04:17:32.545Z,20.85
2024-01-16T04:18:04.434Z,20.83
2024-01-16T04:18:39.746Z,20.83
2024-01-16T04:19:11.644Z,20.83
2024-01-16T04:19:43.339Z,20.83
2024-01-16T04:20:15.079Z,20.82
2024-01-16T04:20:46.782Z,20.80
2024-01-16T04:21:20.726Z,20.79
2024-01-16T04:21:52.729Z,20.79
2024-01-16T04:22:24.472Z,20.81
2024-01-16T04:22:56.361Z,20.83
2024-01-16T04:23:28.038Z,20.84
2024-01-16T04:23:59.740Z,20.83
2024-01-16T04:24:31.488Z,20.82
2024-01-16T04:25:03.260Z,20.82
2024-01-16T04:25:34.868Z,20.83
2024-01-16T04:26:06.635Z,20.82
2024-01-16T04:26:38.366Z,20.81
2024-01-16T04:27:11.790Z,20.82
2024-01-16T04:27:43.315Z,20.82
2024-01-16T04:28:14.925Z,20.83
2024-01-16T04:28:46.499Z,20.84
2024-01-16T04:29:18.161Z,20.85
2024-01-16T04:29:49.840Z,20.85
2024-01-16T04:30:21.498Z,20.85
2024-01-16T04:30:53.262Z,20.85
2024-01-16T04:31:24.991Z,20.83
2024-01-16T04:31:56.554Z,20.82
2024-01-16T04:32:28.277Z,20.82
2024-01-16T04:32:59.989Z,20.81
2024-01-16T04:33:31.834Z,20.82
2024-01-16T04:34:03.698Z,20.84
2024-01-16T04:34:35.356Z,20.86
2024-01-16T04:35:07.335Z,20.85
2024-01-16T04:35:39.117Z,20.84
2024-01-16T04:36:10.750Z,20.84
2024-01-16T04:36:42.393Z,20.81
2024-01-16T04:37:13.980Z,20.80
2024-01-16T04:37:45.565Z,20.80
2024-01-16T04:38:17.192Z,20.81
2024-01-16T04:38:48.978Z,20.83
2024-01-16T04:39:20.642Z,20.85
2024-01-16T04:39:52.284Z,20.85
2024-01-16T04:40:23.850Z,20.85
2024-01-16T04:40:55.509Z,20.85
2024-01-16T04:41:27.212Z,20.85
2024-01-16T04:41:58.795Z,20.84
2024-01-16T04:42:30.519Z,20.83
2024-01-16T04:43:02.187Z,20.82
2024-01-16T04:43:33.848Z,20.83
2024-01-16T04:44:05.514Z,20.82
2024-01-16T04:44:37.267Z,20.83
2024-01-16T04:45:09.055Z,20.83
2024-01-16T04:45:40.692Z,20.84
2024-01-16T04:46:12.323Z,20.84
2024-01-16T04:46:43.961Z,20.84
2024-01-16T04:47:15.604Z,20.86
2024-01-16T04:47:47.362Z,20.85
2024-01-16T04:48:19.034Z,20.85
2024-01-16T04:48:50.912Z,20.85
2024-01-16T04:49:22.756Z,20.83
2024-01-16T04:49:54.363Z,20.83
2024-01-16T04:50:26.094Z,20.83
2024-01-16T04:50:57.761Z,20.84
2024-01-16T04:51:29.488Z,20.84
2024-01-16T04:52:01.161Z,20.83
2024-01-16T04:52:32.807Z,20.83
2024-01-16T04:53:04.852Z,20.82
2024-01-16T04:53:36.598Z,20.82
2024-01-16T04:54:08.349Z,20.82
2024-01-16T04:54:39.990Z,20.81
2024-01-16T04:55:11.662Z,20.82
2024-01-16T04:55:43.304Z,20.83
2024-01-16T04:56:14.979Z,20.82
2024-01-16T04:56:47.149Z,20.82
2024-01-16T04:57:18.800Z,20.82
2024-01-16T04:57:50.428Z,20.81
2024-01-16T04:58:22.094Z,20.82
2024-01-16T04:58:53.741Z,20.81
2024-01-16T04:59:25.449Z,20.81
2024-01-16T04:59:57.087Z,20.81
2024-01-16T05:00:28.858Z,20.81
2024-01-16T05:01:00.584Z,20.82
2024-01-16T05:01:32.266Z,20.82
2024-01-16T05:02:04.233Z,20.83
2024-01-16T05:02:35.887Z,20.81
2024-01-16T05:03:07.481Z,20.82
2024-01-16T05:03:39.105Z,20.81
2024-01-16T05:04:10.748Z,20.81
2024-01-16T05:04:42.368Z,20.80
2024-01-16T05:05:14.304Z,20.81
2024-01-16T05:05:46.175Z,20.81
2024-01-16T05:06:17.905Z,20.82
2024-01-16T05:06:52.548Z,20.81
2024-01-16T05:07:27.265Z,20.81
2024-01-16T05:07:58.892Z,20.81
2024-01-16T05:08:30.553Z,20.80
2024-01-16T05:09:02.259Z,20.80
2024-01-16T05:09:33.901Z,20.81
2024-01-16T05:10:06.103Z,20.82
2024-01-16T05:10:37.701Z,20.83
2024-01-16T05:11:09.533Z,20.84
2024-01-16T05:11:41.243Z,20.83
2024-01-16T05:12:12.889Z,20.83
2024-01-16T05:12:44.441Z,20.84
2024-01-16T05:13:15.985Z,20.82
2024-01-16T05:13:47.627Z,20.82
2024-01-16T05:14:19.277Z,20.83
2024-01-16T05:14:50.980Z,20.82
2024-01-16T05:15:22.584Z,20.82
2024-01-16T05:15:54.230Z,20.82
2024-01-16T05:16:26.197Z,20.82
2024-01-16T05:16:57.914Z,20.80
2024-01-16T05:17:29.670Z,20.81
2024-01-16T05:18:01.768Z,20.82
2024-01-16T05:18:33.536Z,20.81
2024-01-16T05:19:05.259Z,20.82
2024-01-16T05:19:37.017Z,20.84
2024-01-16T05:20:09.014Z,20.82
2024-01-16T05:20:41.084Z,20.82
2024-01-16T05:21:12.766Z,20.82
2024-01-16T05:21:44.461Z,20.80
2024-01-16T05:22:16.065Z,20.80
2024-01-16T05:22:47.667Z,20.80
2024-01-16T05:23:19.327Z,20.79
2024-01-16T05:23:51.040Z,20.80
2024-01-16T05:24:22.643Z,20.82
2024-01-16T05:24:54.330Z,20.82
2024-01-16T05:25:25.970Z,20.83
2024-01-16T05:25:57.684Z,20.84
2024-01-16T05:26:29.322Z,20.82
2024-01-16T05:27:01.061Z,20.82
2024-01-16T05:27:32.660Z,20.82
2024-01-16T05:28:04.598Z,20.82
2024-01-16T05:28:36.211Z,20.81
2024-01-16T05:29:07.870Z,20.82
2024-01-16T05:29:44.097Z,20.82
2024-01-16T05:30:16.330Z,20.83
2024-01-16T05:30:48.128Z,20.84
2024-01-16T05:31:19.810Z,20.85
2024-01-16T05:31:51.601Z,20.86
2024-01-16T05:32:23.245Z,20.85
2024-01-16T05:32:55.391Z,20.87
2024-01-16T05:33:27.260Z,20.86
2024-01-16T05:33:59.081Z,20.87
2024-01-16T05:34:30.977Z,20.87
2024-01-16T05:35:02.721Z,20.87
2024-01-16T05:35:34.414Z,20.87
2024-01-16T05:36:06.316Z,20.85
2024-01-16T05:36:38.211Z,20.85
2024-01-16T05:37:09.867Z,20.83
2024-01-16T05:37:41.470Z,20.84
2024-01-16T05:38:13.121Z,20.84
2024-01-16T05:38:44.738Z,20.82
2024-01-16T05:39:16.393Z,20.81
2024-01-16T05:39:48.030Z,20.82
2024-01-16T05:40:19.678Z,20.85
2024-01-16T05:40:51.298Z,20.85
2024-01-16T05:41:23.181Z,20.87
2024-01-16T05:41:54.968Z,20.87
2024-01-16T05:42:26.716Z,20.87
2024-01-16T05:42:58.378Z,20.88
2024-01-16T05:43:30.015Z,20.88
2024-01-16T05:44:01.690Z,20.88
2024-01-16T05:44:33.292Z,20.87
2024-01-16T05:45:05.185Z,20.88
2024-01-16T05:45:36.764Z,20.86
2024-01-16T05:46:08.421Z,20.88
2024-01-16T05:46:41.201Z,20.88
2024-01-16T05:47:12.853Z,20.87
2024-01-16T05:47:44.613Z,20.86
2024-01-16T05:48:16.357Z,20.85
2024-01-16T05:48:48.107Z,20.86
2024-01-16T05:49:19.858Z,20.87
2024-01-16T05:49:51.753Z,20.87
2024-01-16T05:50:23.481Z,20.88
2024-01-16T05:50:55.169Z,20.87
2024-01-16T05:51:28.648Z,20.88
2024-01-16T05:52:00.345Z,20.87
2024-01-16T05:52:31.938Z,20.85
2024-01-16T05:53:03.675Z,20.87
2024-01-16T05:53:35.273Z,20.87
2024-01-16T05:54:07.135Z,20.88
2024-01-16T05:54:38.779Z,20.88
2024-01-16T05:55:10.389Z,20.87
2024-01-16T05:55:42.068Z,20.87
2024-01-16T05:56:13.654Z,20.85
2024-01-16T05:56:45.295Z,20.83
2024-01-16T05:57:16.933Z,20.83
2024-01-16T05:57:48.615Z,20.82
2024-01-16T05:58:20.235Z,20.83
2024-01-16T05:58:52.015Z,20.83
2024-01-16T05:59:23.668Z,20.81
2024-01-16T05:59:55.344Z,20.81
2024-01-16T06:00:26.928Z,20.82
2024-01-16T06:00:58.543Z,20.82
2024-01-16T06:01:30.219Z,20.82
2024-01-16T06:02:01.811Z,20.81
2024-01-16T06:02:33.482Z,20.82
2024-01-16T06:03:05.176Z,20.81
2024-01-16T06:03:36.776Z,20.82
2024-01-16T06:04:08.828Z,20.84
2024-01-16T06:04:41.091Z,20.81
2024-01-16T06:05:12.817Z,20.82
2024-01-16T06:05:44.617Z,20.84
2024-01-16T06:06:16.253Z,20.85
2024-01-16T06:06:47.966Z,20.85
2024-01-16T06:07:19.616Z,20.87
2024-01-16T06:07:51.293Z,20.87
2024-01-16T06:08:22.921Z,20.87
2024-01-16T06:08:54.633Z,20.87
2024-01-16T06:09:26.313Z,20.85
2024-01-16T06:09:57.967Z,20.85
2024-01-16T06:10:29.570Z,20.85
2024-01-16T06:11:01.172Z,20.87
2024-01-16T06:11:33.200Z,20.87
2024-01-16T06:12:05.079Z,20.88
2024-01-16T06:12:36.820Z,20.87
2024-01-16T06:13:08.462Z,20.87
2024-01-16T06:13:40.280Z,20.87
2024-01-16T06:14:11.946Z,20.85
2024-01-16T06:14:43.678Z,20.84
2024-01-16T06:15:15.353Z,20.84
2024-01-16T06:15:47.010Z,20.84
2024-01-16T06:16:18.619Z,20.84
2024-01-16T06:16:50.331Z,20.83
2024-01-16T06:17:22.063Z,20.84
2024-01-16T06:17:53.799Z,20.85
2024-01-16T06:18:25.629Z,20.84
2024-01-16T06:18:57.403Z,20.86
2024-01-16T06:19:29.181Z,20.85
2024-01-16T06:20:00.881Z,20.84
2024-01-16T06:20:32.502Z,20.83
2024-01-16T06:21:04.300Z,20.83
2024-01-16T06:21:35.972Z,20.82
2024-01-16T06:22:07.676Z,20.83
2024-01-16T06:22:39.308Z,20.82
2024-01-16T06:23:10.986Z,20.81
2024-01-16T06:23:42.636Z,20.81
2024-01-16T06:24:14.255Z,20.80
2024-01-16T06:24:45.884Z,20.81
2024-01-16T06:25:17.495Z,20.81
2024-01-16T06:25:49.157Z,20.82
2024-01-16T06:26:20.888Z,20.82
2024-01-16T06:26:52.608Z,20.83
2024-01-16T06:27:24.226Z,20.84
2024-01-16T06:27:55.953Z,20.85
2024-01-16T06:28:27.611Z,20.86
2024-01-16T06:28:59.181Z,20.85
2024-01-16T06:29:35.035Z,20.85
2024-01-16T06:30:07.680Z,20.85
2024-01-16T06:30:39.445Z,20.84
2024-01-16T06:31:11.376Z,20.84
2024-01-16T06:31:43.028Z,20.83
2024-01-16T06:32:14.755Z,20.83
2024-01-16T06:32:46.396Z,20.83
2024-01-16T06:33:18.570Z,20.82
2024-01-16T06:33:50.440Z,20.83
2024-01-16T06:34:22.229Z,20.85
2024-01-16T06:34:53.918Z,20.85
2024-01-16T06:35:25.651Z,20.86
2024-01-16T06:35:57.459Z,20.85
2024-01-16T06:36:29.176Z,20.84
2024-01-16T06:37:00.770Z,20.87
2024-01-16T06:37:32.378Z,20.87
2024-01-16T06:38:04.113Z,20.87
2024-01-16T06:38:35.728Z,20.87
2024-01-16T06:39:07.489Z,20.86
2024-01-16T06:39:39.177Z,20.85
2024-01-16T06:40:11.190Z,20.84
2024-01-16T06:40:42.863Z,20.84
2024-01-16T06:41:14.500Z,20.85
2024-01-16T06:41:46.310Z,20.87
2024-01-16T06:42:17.937Z,20.87
2024-01-16T06:42:49.605Z,20.87
2024-01-16T06:43:21.241Z,20.88
2024-01-16T06:43:52.837Z,20.86
2024-01-16T06:44:24.466Z,20.84
2024-01-16T06:44:56.295Z,20.84
2024-01-16T06:45:28.073Z,20.84
2024-01-16T06:45:59.732Z,20.85
2024-01-16T06:46:31.354Z,20.86
2024-01-16T06:47:03.061Z,20.86
2024-01-16T06:47:34.810Z,20.85
2024-01-16T06:48:06.716Z,20.85
2024-01-16T06:48:38.509Z,20.84
2024-01-16T06:49:10.298Z,20.83
2024-01-16T06:49:42.099Z,20.83
2024-01-16T06:50:13.782Z,20.85